Time;durP1;ratioP1;P1;durP2;ratioP2;P2;SDS_P1;SDS_P2;PMS_P1;PMS_P2;Temp;Humidity;BMP_temperature;BMP_pressure;BME280_temperature;BME280_humidity;BME280_pressure;Samples;Min_cycle;Max_cycle;Signal;HPM_P1;HPM_P2
2023/05/12 00:02:30;;;;;;;3.70;1.03;;;26.20;82.20;;;;;;4939355;29;20268;-92
2023/05/12 00:05:01;;;;;;;3.47;1.00;;;26.10;83.70;;;;;;4938257;29;20213;-92
2023/05/12 00:07:35;;;;;;;3.87;1.13;;;26.00;83.10;;;;;;4939484;29;20309;-91
2023/05/12 00:10:06;;;;;;;2.67;1.07;;;25.60;86.80;;;;;;4936917;29;20297;-94
2023/05/12 00:12:38;;;;;;;2.37;0.83;;;25.60;86.20;;;;;;4920353;29;20227;-93
2023/05/12 00:15:10;;;;;;;2.37;1.03;;;25.80;86.20;;;;;;4928711;29;20247;-92
2023/05/12 00:17:45;;;;;;;2.47;0.97;;;25.80;86.70;;;;;;4938808;29;20200;-94
2023/05/12 00:20:16;;;;;;;2.03;1.17;;;25.80;88.20;;;;;;4937802;29;20235;-91
2023/05/12 00:22:48;;;;;;;1.50;0.80;;;25.70;89.00;;;;;;4939501;29;20208;-92
2023/05/12 00:25:20;;;;;;;2.10;1.13;;;25.60;90.60;;;;;;4938817;28;20280;-93
2023/05/12 00:27:51;;;;;;;2.73;1.10;;;25.70;89.30;;;;;;4937927;29;20208;-92
2023/05/12 00:30:23;;;;;;;1.70;1.10;;;25.70;90.60;;;;;;4939118;29;20264;-92
2023/05/12 00:32:57;;;;;;;1.23;0.90;;;25.80;90.80;;;;;;4936924;29;20276;-92
2023/05/12 00:35:28;;;;;;;3.57;1.30;;;25.80;89.40;;;;;;4938556;29;20284;-88
2023/05/12 00:37:59;;;;;;;4.93;1.53;;;25.60;91.20;;;;;;4939693;29;20208;-87
2023/05/12 00:40:31;;;;;;;1.77;0.90;;;25.50;91.80;;;;;;4947052;29;20268;-88
2023/05/12 00:43:03;;;;;;;1.30;0.90;;;25.40;91.00;;;;;;4954712;29;20216;-94
2023/05/12 00:45:34;;;;;;;2.07;1.03;;;25.20;90.10;;;;;;4954459;28;20222;-94
2023/05/12 00:48:08;;;;;;;2.23;1.20;;;25.10;91.70;;;;;;4946302;29;20215;-95
2023/05/12 00:50:43;;;;;;;4.73;1.10;;;25.20;90.40;;;;;;4941504;29;20228;-96
2023/05/12 00:53:15;;;;;;;1.77;0.90;;;25.20;91.00;;;;;;4940821;29;20279;-96
2023/05/12 00:55:47;;;;;;;1.83;1.03;;;25.00;91.10;;;;;;4939675;28;20616;-96
2023/05/12 00:58:18;;;;;;;3.57;1.00;;;25.10;91.40;;;;;;4938465;29;20271;-96
2023/05/12 01:00:50;;;;;;;1.87;1.07;;;25.10;91.50;;;;;;4925520;28;20209;-96
2023/05/12 01:03:24;;;;;;;6.97;1.20;;;25.20;91.80;;;;;;4941293;28;20308;-96
2023/05/12 01:06:02;;;;;;;2.23;1.10;;;25.40;91.50;;;;;;4943088;29;20223;-96
2023/05/12 01:08:36;;;;;;;4.27;1.00;;;25.70;92.40;;;;;;4952291;29;20235;-96
2023/05/12 01:11:08;;;;;;;3.57;1.20;;;26.10;90.80;;;;;;4950260;29;20208;-96
2023/05/12 01:13:41;;;;;;;3.23;1.23;;;26.30;90.90;;;;;;4953460;29;20208;-96
2023/05/12 01:16:17;;;;;;;2.33;1.40;;;26.70;92.30;;;;;;4959812;29;20311;-96
2023/05/12 01:18:57;;;;;;;8.57;1.40;;;26.90;90.50;;;;;;4952581;29;20212;-96
2023/05/12 01:21:29;;;;;;;2.93;1.20;;;27.20;90.00;;;;;;4955172;28;20212;-96
2023/05/12 01:24:05;;;;;;;2.17;1.20;;;27.00;89.50;;;;;;4958385;28;20212;-95
2023/05/12 01:26:40;;;;;;;2.97;1.10;;;27.20;88.30;;;;;;4950502;29;20218;-96
2023/05/12 01:29:13;;;;;;;7.07;1.70;;;27.30;89.40;;;;;;4948032;29;20212;-96
2023/05/12 01:31:45;;;;;;;16.57;2.00;;;27.40;90.00;;;;;;4949034;28;20204;-96
2023/05/12 01:34:18;;;;;;;95.30;5.87;;;27.10;89.40;;;;;;4941195;29;20212;-96
2023/05/12 01:36:50;;;;;;;3.73;1.00;;;27.00;88.20;;;;;;4941943;29;20232;-95
2023/05/12 01:39:22;;;;;;;7.67;1.20;;;26.40;90.10;;;;;;4940352;29;20201;-96
2023/05/12 01:41:56;;;;;;;8.80;1.53;;;25.80;90.90;;;;;;4940504;29;20812;-87
2023/05/12 01:44:27;;;;;;;3.50;1.33;;;25.30;91.10;;;;;;4936368;29;20213;-91
2023/05/12 01:47:00;;;;;;;4.97;1.20;;;25.10;92.30;;;;;;4938950;29;20208;-90
2023/05/12 01:49:31;;;;;;;2.73;1.37;;;24.70;92.00;;;;;;4950295;29;20197;-94
2023/05/12 01:52:05;;;;;;;4.80;1.20;;;24.40;92.50;;;;;;4953903;29;20226;-94
2023/05/12 01:54:36;;;;;;;4.30;1.00;;;24.10;92.90;;;;;;4950495;29;20220;-94
2023/05/12 01:57:10;;;;;;;5.30;1.30;;;23.60;93.20;;;;;;4952089;29;20205;-92
2023/05/12 01:59:42;;;;;;;3.07;0.97;;;23.30;94.00;;;;;;4935517;29;20685;-95
2023/05/12 02:02:15;;;;;;;5.27;1.10;;;23.10;93.90;;;;;;4939896;29;20216;-94
2023/05/12 02:04:46;;;;;;;2.17;1.10;;;23.00;93.90;;;;;;4939456;29;20283;-93
2023/05/12 02:07:18;;;;;;;2.73;1.20;;;22.70;94.20;;;;;;4935589;29;20221;-94
2023/05/12 02:09:50;;;;;;;3.10;1.03;;;22.50;95.30;;;;;;4937844;29;20607;-92
2023/05/12 02:12:24;;;;;;;2.90;1.00;;;22.40;95.50;;;;;;4937466;29;20216;-93
2023/05/12 02:14:55;;;;;;;1.73;0.97;;;22.20;95.20;;;;;;4937571;29;20850;-93
2023/05/12 02:17:27;;;;;;;1.93;1.00;;;22.10;95.40;;;;;;4937473;29;20212;-93
2023/05/12 02:19:59;;;;;;;1.80;0.90;;;22.00;95.60;;;;;;4918992;29;20240;-93
2023/05/12 02:22:31;;;;;;;2.47;1.20;;;21.90;96.20;;;;;;4936611;29;20213;-93
2023/05/12 02:25:02;;;;;;;4.17;1.20;;;21.80;96.90;;;;;;4941988;29;20264;-95
2023/05/12 02:27:35;;;;;;;2.00;1.10;;;21.70;97.00;;;;;;4942840;29;20227;-93
2023/05/12 02:30:08;;;;;;;2.67;1.20;;;21.60;97.20;;;;;;4935516;29;20237;-93
2023/05/12 02:32:40;;;;;;;3.07;1.30;;;21.60;96.80;;;;;;4941899;29;20209;-94
2023/05/12 02:35:12;;;;;;;3.47;1.00;;;21.50;98.00;;;;;;4940748;29;20240;-92
2023/05/12 02:37:43;;;;;;;2.00;0.97;;;21.40;97.20;;;;;;4940470;29;20212;-95
2023/05/12 02:40:15;;;;;;;2.87;1.10;;;21.30;96.30;;;;;;4929009;29;20204;-93
2023/05/12 02:42:49;;;;;;;3.33;1.00;;;21.20;97.50;;;;;;4940938;29;20267;-94
2023/05/12 02:45:21;;;;;;;1.40;0.90;;;21.10;95.80;;;;;;4941518;29;20275;-93
2023/05/12 02:47:52;;;;;;;1.00;0.87;;;21.00;95.90;;;;;;4939753;29;20267;-92
2023/05/12 02:50:24;;;;;;;2.47;0.80;;;20.90;95.80;;;;;;4936246;28;20284;-94
2023/05/12 02:52:56;;;;;;;1.17;0.70;;;20.80;94.70;;;;;;4939439;29;20216;-92
2023/05/12 02:55:28;;;;;;;4.00;1.23;;;20.70;94.20;;;;;;4942282;29;20248;-95
2023/05/12 02:58:04;;;;;;;1.27;0.73;;;20.60;93.50;;;;;;4942569;29;20282;-93
2023/05/12 03:00:35;;;;;;;3.53;0.90;;;20.50;93.50;;;;;;4933093;29;20208;-94
2023/05/12 03:03:07;;;;;;;2.60;1.13;;;20.40;94.30;;;;;;4943684;29;20204;-93
2023/05/12 03:05:39;;;;;;;3.97;0.90;;;20.30;95.40;;;;;;4941381;29;20206;-93
2023/05/12 03:08:11;;;;;;;2.37;1.10;;;20.30;94.20;;;;;;4945811;29;20200;-93
2023/05/12 03:10:44;;;;;;;1.83;0.80;;;20.20;94.60;;;;;;4943537;29;20208;-94
2023/05/12 03:13:18;;;;;;;2.07;1.10;;;20.10;94.50;;;;;;4931297;29;20279;-93
2023/05/12 03:15:59;;;;;;;1.53;0.80;;;20.00;95.50;;;;;;4942633;29;20252;-95
2023/05/12 03:18:31;;;;;;;2.27;1.07;;;19.90;95.70;;;;;;4940756;29;20212;-94
2023/05/12 03:21:02;;;;;;;1.93;1.00;;;19.80;95.40;;;;;;4941158;29;20645;-95
2023/05/12 03:23:35;;;;;;;1.67;0.80;;;19.70;95.70;;;;;;4939460;29;20212;-94
2023/05/12 03:26:07;;;;;;;2.73;1.07;;;19.60;95.70;;;;;;4940080;29;20208;-94
2023/05/12 03:28:40;;;;;;;3.27;0.90;;;19.50;96.60;;;;;;4938231;29;20209;-93
2023/05/12 03:31:12;;;;;;;4.33;0.80;;;19.40;97.00;;;;;;4928950;28;20220;-93
2023/05/12 03:33:44;;;;;;;3.17;0.90;;;19.20;97.90;;;;;;4939700;29;20240;-94
2023/05/12 03:36:17;;;;;;;2.87;1.30;;;19.10;98.00;;;;;;4940057;29;20240;-95
2023/05/12 03:38:49;;;;;;;4.03;1.00;;;19.00;99.10;;;;;;4940316;29;20217;-94
2023/05/12 03:41:21;;;;;;;1.93;1.00;;;18.80;99.10;;;;;;4939413;29;20232;-95
2023/05/12 03:43:54;;;;;;;1.70;0.87;;;18.70;98.90;;;;;;4938934;29;20220;-91
2023/05/12 03:46:26;;;;;;;2.40;1.00;;;18.60;99.70;;;;;;4939710;28;20220;-93
2023/05/12 03:48:57;;;;;;;1.97;1.00;;;18.50;99.80;;;;;;4937436;29;20207;-92
2023/05/12 03:51:29;;;;;;;2.20;0.80;;;18.50;99.90;;;;;;4937137;29;20219;-92
2023/05/12 03:54:01;;;;;;;2.10;0.83;;;18.40;99.40;;;;;;4939394;29;20196;-93
2023/05/12 03:56:32;;;;;;;1.63;0.80;;;18.30;99.60;;;;;;4939214;29;20236;-91
2023/05/12 03:59:05;;;;;;;1.43;0.70;;;18.20;99.90;;;;;;4931020;29;20200;-92
2023/05/12 04:01:36;;;;;;;1.50;0.73;;;18.10;99.20;;;;;;4957645;29;20185;-92
2023/05/12 04:04:08;;;;;;;3.23;1.00;;;18.10;99.90;;;;;;4960933;29;20208;-91
2023/05/12 04:06:40;;;;;;;3.07;0.97;;;17.90;99.90;;;;;;4954883;28;20212;-92
2023/05/12 04:09:11;;;;;;;1.93;0.80;;;17.80;99.90;;;;;;4946222;29;20220;-90
2023/05/12 04:11:43;;;;;;;1.43;1.07;;;17.70;99.90;;;;;;4939523;29;20205;-91
2023/05/12 04:14:18;;;;;;;1.03;0.80;;;17.60;99.90;;;;;;4940826;29;20292;-92
2023/05/12 04:17:01;;;;;;;1.20;0.77;;;17.50;99.90;;;;;;4938700;29;20238;-91
2023/05/12 04:19:32;;;;;;;1.43;0.80;;;17.50;99.90;;;;;;4926325;29;20212;-91
2023/05/12 04:22:03;;;;;;;1.80;1.03;;;17.40;99.90;;;;;;4939026;29;20211;-90
2023/05/12 04:24:35;;;;;;;2.17;0.83;;;17.40;99.90;;;;;;4939822;29;20717;-93
2023/05/12 04:27:08;;;;;;;1.70;0.80;;;17.30;99.90;;;;;;4938973;29;20201;-92
2023/05/12 04:29:43;;;;;;;2.57;0.90;;;17.20;99.90;;;;;;4928307;29;20227;-93
2023/05/12 04:32:14;;;;;;;1.30;0.83;;;17.10;99.90;;;;;;4935031;29;20267;-93
2023/05/12 04:34:46;;;;;;;1.60;0.83;;;17.10;99.90;;;;;;4938578;29;20212;-93
2023/05/12 04:37:18;;;;;;;1.33;0.87;;;17.00;99.90;;;;;;4938224;29;20246;-92
2023/05/12 04:39:49;;;;;;;3.30;1.20;;;17.00;99.90;;;;;;4934537;29;20212;-93
2023/05/12 04:42:20;;;;;;;1.77;1.07;;;17.00;99.90;;;;;;4938139;29;20216;-93
2023/05/12 04:44:54;;;;;;;3.77;1.30;;;16.90;99.90;;;;;;4937469;29;20208;-91
2023/05/12 04:47:28;;;;;;;1.93;1.00;;;16.90;99.90;;;;;;4935870;29;20720;-92
2023/05/12 04:49:59;;;;;;;2.90;1.10;;;16.80;99.90;;;;;;4937323;29;20204;-93
2023/05/12 04:52:31;;;;;;;6.83;0.87;;;16.80;99.90;;;;;;4937699;29;20224;-93
2023/05/12 04:55:02;;;;;;;2.33;0.97;;;16.70;99.90;;;;;;4938392;29;20268;-91
2023/05/12 04:57:34;;;;;;;2.20;1.20;;;16.70;99.90;;;;;;4929525;29;20263;-92
2023/05/12 05:00:09;;;;;;;1.97;0.93;;;16.60;99.90;;;;;;4940938;28;20212;-92
2023/05/12 05:02:40;;;;;;;4.47;1.03;;;16.50;99.90;;;;;;4934068;29;20248;-90
2023/05/12 05:05:11;;;;;;;1.67;1.10;;;16.40;99.90;;;;;;4933125;29;20215;-90
2023/05/12 05:07:43;;;;;;;3.20;1.10;;;16.30;99.90;;;;;;4934160;29;20251;-91
2023/05/12 05:10:14;;;;;;;1.57;1.00;;;16.20;99.90;;;;;;4936181;29;20212;-91
2023/05/12 05:12:46;;;;;;;2.23;1.30;;;16.00;99.90;;;;;;4936772;29;20268;-91
2023/05/12 05:15:21;;;;;;;1.97;1.10;;;15.90;99.90;;;;;;4935974;29;20208;-92
2023/05/12 05:17:53;;;;;;;1.97;1.00;;;15.80;99.90;;;;;;4935257;29;20259;-93
2023/05/12 05:20:27;;;;;;;2.07;1.00;;;15.70;99.90;;;;;;4935966;29;20209;-92
2023/05/12 05:23:02;;;;;;;0.93;0.90;;;15.60;99.90;;;;;;4938081;29;21936;-92
2023/05/12 05:25:34;;;;;;;3.87;1.30;;;15.50;99.90;;;;;;4939942;29;20208;-93
2023/05/12 05:28:05;;;;;;;1.50;1.20;;;15.40;99.90;;;;;;4940949;29;20236;-93
2023/05/12 05:30:40;;;;;;;4.33;1.13;;;15.30;99.90;;;;;;4957215;28;20232;-92
2023/05/12 05:33:12;;;;;;;3.77;1.17;;;15.30;99.90;;;;;;4953057;29;20246;-91
2023/05/12 05:35:44;;;;;;;3.40;1.17;;;15.20;99.90;;;;;;4949174;29;20196;-93
2023/05/12 05:38:15;;;;;;;2.30;1.20;;;15.20;99.90;;;;;;4950656;29;20259;-93
2023/05/12 05:40:47;;;;;;;2.77;0.80;;;15.20;99.90;;;;;;4940575;29;20252;-93
2023/05/12 05:43:23;;;;;;;1.53;1.17;;;15.10;99.90;;;;;;4938390;29;20265;-93
2023/05/12 05:45:57;;;;;;;1.10;1.00;;;15.10;99.90;;;;;;4935454;29;20243;-93
2023/05/12 05:48:28;;;;;;;1.63;0.93;;;15.10;99.90;;;;;;4935726;29;20305;-92
2023/05/12 05:50:59;;;;;;;1.77;0.87;;;15.10;99.90;;;;;;4936021;29;20208;-93
2023/05/12 05:53:30;;;;;;;2.53;1.07;;;15.00;99.90;;;;;;4936986;29;20212;-92
2023/05/12 05:56:02;;;;;;;1.33;0.80;;;15.00;99.90;;;;;;4935702;29;20236;-92
2023/05/12 05:58:33;;;;;;;2.43;0.97;;;15.00;99.90;;;;;;4925365;29;20232;-91
2023/05/12 06:01:07;;;;;;;6.00;0.90;;;15.00;99.90;;;;;;4940763;29;20299;-93
2023/05/12 06:03:38;;;;;;;3.03;0.90;;;15.00;99.90;;;;;;4922329;29;20268;-92
2023/05/12 06:06:10;;;;;;;2.47;1.00;;;14.90;99.90;;;;;;4924668;29;20212;-92
2023/05/12 06:08:41;;;;;;;3.50;1.00;;;15.00;99.90;;;;;;4940402;29;20212;-93
2023/05/12 06:11:12;;;;;;;1.33;0.93;;;14.90;99.90;;;;;;4960573;28;20188;-93
2023/05/12 06:13:46;;;;;;;1.53;1.03;;;14.80;99.90;;;;;;4960592;29;20212;-94
2023/05/12 06:16:21;;;;;;;3.67;1.13;;;14.80;99.90;;;;;;4955931;29;20201;-92
2023/05/12 06:18:54;;;;;;;1.23;0.93;;;14.70;99.90;;;;;;4948013;29;20239;-91
2023/05/12 06:21:25;;;;;;;4.17;1.00;;;14.60;99.90;;;;;;4942516;29;20208;-93
2023/05/12 06:23:56;;;;;;;3.73;1.00;;;14.60;99.90;;;;;;4940257;29;20255;-92
2023/05/12 06:26:27;;;;;;;1.40;1.07;;;14.50;99.90;;;;;;4936740;29;20309;-91
2023/05/12 06:28:59;;;;;;;3.37;1.30;;;14.50;99.90;;;;;;4934279;29;20218;-93
2023/05/12 06:31:32;;;;;;;1.90;1.00;;;14.50;99.90;;;;;;4940914;29;20204;-92
2023/05/12 06:34:03;;;;;;;1.70;1.00;;;14.40;99.90;;;;;;4940476;29;20271;-93
2023/05/12 06:36:35;;;;;;;3.57;1.00;;;14.40;99.90;;;;;;4938766;29;20220;-93
2023/05/12 06:39:06;;;;;;;1.97;0.87;;;14.40;99.90;;;;;;4928533;29;20244;-94
2023/05/12 06:41:38;;;;;;;2.43;1.00;;;14.30;99.90;;;;;;4940565;29;21964;-92
2023/05/12 06:44:11;;;;;;;1.93;0.90;;;14.30;99.90;;;;;;4938813;29;20208;-92
2023/05/12 06:46:44;;;;;;;1.20;0.87;;;14.30;99.90;;;;;;4934923;29;20208;-92
2023/05/12 06:49:16;;;;;;;2.50;1.10;;;14.20;99.90;;;;;;4939101;29;20661;-93
2023/05/12 06:51:47;;;;;;;2.33;1.10;;;14.20;99.90;;;;;;4933599;29;20250;-93
2023/05/12 06:54:19;;;;;;;2.87;1.10;;;14.10;99.90;;;;;;4929018;29;20208;-93
2023/05/12 06:56:50;;;;;;;2.63;1.10;;;14.10;99.90;;;;;;4933246;29;20277;-93
2023/05/12 06:59:22;;;;;;;2.83;0.80;;;14.10;99.90;;;;;;4938359;29;20243;-91
2023/05/12 07:01:58;;;;;;;2.70;0.93;;;14.00;99.90;;;;;;4932869;29;20227;-92
2023/05/12 07:04:29;;;;;;;2.17;0.97;;;13.90;99.90;;;;;;4934861;29;20223;-93
2023/05/12 07:07:01;;;;;;;4.00;0.90;;;13.80;99.90;;;;;;4933697;29;20216;-91
2023/05/12 07:09:32;;;;;;;3.83;1.17;;;13.80;99.90;;;;;;4938257;29;20216;-92
2023/05/12 07:12:04;;;;;;;2.40;0.90;;;13.70;99.90;;;;;;4937792;29;20219;-91
2023/05/12 07:14:35;;;;;;;2.13;0.87;;;13.60;99.90;;;;;;4938755;29;20212;-93
2023/05/12 07:17:08;;;;;;;2.07;0.97;;;13.60;99.90;;;;;;4933826;29;20268;-91
2023/05/12 07:19:42;;;;;;;1.60;1.00;;;13.50;99.90;;;;;;4936475;29;20212;-90
2023/05/12 07:22:14;;;;;;;2.30;1.20;;;13.50;99.90;;;;;;4931693;28;20260;-91
2023/05/12 07:24:46;;;;;;;1.07;0.90;;;13.50;99.90;;;;;;4938939;29;20243;-92
2023/05/12 07:27:17;;;;;;;2.73;1.13;;;13.50;99.90;;;;;;4938849;29;20681;-92
2023/05/12 07:29:49;;;;;;;3.60;1.07;;;13.50;99.90;;;;;;4935158;29;20208;-92
2023/05/12 07:32:23;;;;;;;1.30;0.87;;;13.40;99.90;;;;;;4939214;29;20244;-93
2023/05/12 07:34:54;;;;;;;1.87;1.00;;;13.40;99.90;;;;;;4934677;29;20229;-92
2023/05/12 07:37:26;;;;;;;1.97;1.00;;;13.30;99.90;;;;;;4934431;29;20212;-92
2023/05/12 07:39:57;;;;;;;1.63;0.70;;;13.30;99.90;;;;;;4934822;28;20213;-92
2023/05/12 07:42:28;;;;;;;2.73;0.73;;;13.30;99.90;;;;;;4937140;29;20216;-92
2023/05/12 07:45:00;;;;;;;2.60;1.20;;;13.40;99.90;;;;;;4938367;29;20213;-92
2023/05/12 07:47:33;;;;;;;2.63;1.17;;;13.40;99.90;;;;;;4939253;29;20213;-93
2023/05/12 07:50:06;;;;;;;1.93;1.00;;;13.30;99.90;;;;;;4928337;29;20208;-94
2023/05/12 07:52:37;;;;;;;2.17;0.90;;;13.30;99.90;;;;;;4940111;28;20321;-93
2023/05/12 07:55:09;;;;;;;4.27;1.20;;;13.30;99.90;;;;;;4940412;29;20209;-93
2023/05/12 07:57:41;;;;;;;2.63;1.10;;;13.30;99.90;;;;;;4932756;29;20244;-93
2023/05/12 08:00:14;;;;;;;2.80;0.90;;;13.20;99.90;;;;;;4940117;29;20201;-91
2023/05/12 08:02:49;;;;;;;2.67;0.90;;;13.10;99.90;;;;;;4951965;29;20232;-94
2023/05/12 08:05:21;;;;;;;2.40;0.90;;;13.10;99.90;;;;;;4948650;29;20204;-92
2023/05/12 08:07:53;;;;;;;2.57;1.10;;;13.00;99.90;;;;;;4939182;29;20974;-91
2023/05/12 08:10:28;;;;;;;1.83;0.80;;;12.90;99.90;;;;;;4939614;29;20216;-93
2023/05/12 08:13:00;;;;;;;2.77;0.90;;;13.00;99.90;;;;;;4934164;29;20209;-93
2023/05/12 08:15:32;;;;;;;2.80;1.13;;;12.90;99.90;;;;;;4935444;29;20237;-93
2023/05/12 08:18:07;;;;;;;4.17;1.10;;;12.90;99.90;;;;;;4945752;29;20228;-91
2023/05/12 08:20:39;;;;;;;4.67;1.17;;;12.80;99.90;;;;;;4960077;29;20212;-91
2023/05/12 08:23:11;;;;;;;3.63;1.30;;;12.70;99.90;;;;;;4958445;29;20196;-92
2023/05/12 08:25:43;;;;;;;2.60;0.90;;;12.70;99.90;;;;;;4933238;28;20221;-91
2023/05/12 08:28:15;;;;;;;2.17;1.20;;;12.60;99.90;;;;;;4942547;29;20212;-93
2023/05/12 08:30:47;;;;;;;3.33;1.00;;;12.60;99.90;;;;;;4935150;29;20243;-92
2023/05/12 08:33:20;;;;;;;2.80;1.07;;;12.50;99.90;;;;;;4937257;29;20234;-92
2023/05/12 08:35:51;;;;;;;3.40;0.97;;;12.50;99.90;;;;;;4938257;29;20218;-91
2023/05/12 08:38:23;;;;;;;2.37;0.93;;;12.40;99.90;;;;;;4937213;28;20270;-92
2023/05/12 08:41:05;;;;;;;1.43;0.90;;;12.40;99.90;;;;;;4938217;29;20593;-92
2023/05/12 08:43:43;;;;;;;1.90;0.90;;;12.40;99.90;;;;;;4938408;29;20208;-92
2023/05/12 08:46:14;;;;;;;2.50;1.10;;;12.40;99.90;;;;;;4925558;29;20216;-92
2023/05/12 08:48:49;;;;;;;6.33;1.10;;;12.30;99.90;;;;;;4936996;29;20239;-92
2023/05/12 08:51:21;;;;;;;3.17;1.00;;;12.30;99.90;;;;;;4937919;28;20212;-94
2023/05/12 08:53:56;;;;;;;2.40;1.00;;;12.30;99.90;;;;;;4935476;29;20217;-92
2023/05/12 08:56:28;;;;;;;2.03;1.00;;;12.30;99.90;;;;;;4934314;29;20259;-93
2023/05/12 08:59:06;;;;;;;1.83;1.20;;;12.20;99.90;;;;;;4931856;29;20300;-92
2023/05/12 09:01:41;;;;;;;1.83;0.90;;;12.30;99.90;;;;;;4938747;29;20216;-92
2023/05/12 09:04:15;;;;;;;3.43;1.10;;;12.20;99.90;;;;;;4924895;29;20268;-92
2023/05/12 09:06:48;;;;;;;2.17;1.20;;;12.20;99.90;;;;;;4937099;29;20208;-93
2023/05/12 09:09:20;;;;;;;2.87;1.00;;;12.20;99.90;;;;;;4935058;29;20678;-92
2023/05/12 09:11:57;;;;;;;2.87;1.20;;;12.10;99.90;;;;;;4937122;29;20563;-94
2023/05/12 09:14:33;;;;;;;3.07;1.03;;;12.10;99.90;;;;;;4938765;29;20223;-94
2023/05/12 09:17:07;;;;;;;3.07;1.43;;;12.00;99.90;;;;;;4937529;29;20662;-94
2023/05/12 09:19:41;;;;;;;3.30;1.00;;;12.00;99.90;;;;;;4936717;28;20239;-92
2023/05/12 09:22:15;;;;;;;2.77;1.23;;;12.00;99.90;;;;;;4925481;29;20267;-92
2023/05/12 09:24:47;;;;;;;2.53;1.10;;;11.90;99.90;;;;;;4937303;29;20236;-92
2023/05/12 09:27:26;;;;;;;1.97;0.90;;;11.80;99.90;;;;;;4937563;29;20271;-91
2023/05/12 09:29:57;;;;;;;3.40;1.10;;;11.80;99.90;;;;;;4935689;29;20347;-92
2023/05/12 09:32:33;;;;;;;2.30;1.10;;;11.70;99.90;;;;;;4937366;28;20212;-91
2023/05/12 09:35:10;;;;;;;2.03;1.27;;;11.70;99.90;;;;;;4937525;28;20227;-92
2023/05/12 09:37:41;;;;;;;2.67;1.23;;;11.70;99.90;;;;;;4932093;29;20595;-92
2023/05/12 09:40:14;;;;;;;2.50;1.10;;;11.70;99.90;;;;;;4937176;29;20239;-92
2023/05/12 09:42:48;;;;;;;1.83;1.00;;;11.70;99.90;;;;;;4939716;29;20268;-91
2023/05/12 09:45:21;;;;;;;1.37;1.27;;;11.60;99.90;;;;;;4944800;29;20203;-93
2023/05/12 09:47:53;;;;;;;2.93;1.20;;;11.60;99.90;;;;;;4936597;29;20615;-91
2023/05/12 09:50:26;;;;;;;2.60;1.23;;;11.50;99.90;;;;;;4937397;28;20692;-92
2023/05/12 09:53:08;;;;;;;1.83;1.10;;;11.50;99.90;;;;;;4935982;29;20212;-93
2023/05/12 09:55:40;;;;;;;1.20;1.10;;;11.50;99.90;;;;;;4919051;29;20268;-92
2023/05/12 09:58:13;;;;;;;1.80;1.10;;;11.50;99.90;;;;;;4917149;29;20217;-92
2023/05/12 10:00:45;;;;;;;2.23;1.40;;;11.50;99.90;;;;;;4918232;29;20232;-93
2023/05/12 10:03:23;;;;;;;2.37;0.93;;;11.40;99.90;;;;;;4920616;29;20300;-94
2023/05/12 10:06:01;;;;;;;2.27;1.20;;;11.40;99.90;;;;;;4937323;29;20212;-92
2023/05/12 10:08:39;;;;;;;3.37;1.30;;;11.40;99.90;;;;;;4936723;29;20208;-92
2023/05/12 10:11:11;;;;;;;2.07;1.20;;;11.40;99.90;;;;;;4937622;29;20303;-92
2023/05/12 10:13:44;;;;;;;1.50;1.10;;;11.40;99.90;;;;;;4937659;29;20220;-93
2023/05/12 10:16:16;;;;;;;1.57;1.30;;;11.40;99.90;;;;;;4937819;29;20601;-93
2023/05/12 10:18:49;;;;;;;3.03;0.93;;;11.40;99.90;;;;;;4922122;29;20247;-93
2023/05/12 10:21:24;;;;;;;8.83;1.43;;;11.30;99.90;;;;;;4940488;29;20244;-92
2023/05/12 10:23:56;;;;;;;2.03;1.20;;;11.30;99.90;;;;;;4941617;29;20220;-93
2023/05/12 10:26:28;;;;;;;2.30;1.00;;;11.20;99.90;;;;;;4958119;28;20199;-89
2023/05/12 10:29:00;;;;;;;3.27;1.40;;;11.20;99.90;;;;;;4958452;29;20199;-92
2023/05/12 10:31:31;;;;;;;1.63;1.10;;;11.20;99.90;;;;;;4951613;29;20208;-93
2023/05/12 10:34:04;;;;;;;1.97;1.40;;;11.20;99.90;;;;;;4942065;29;20213;-92
2023/05/12 10:36:48;;;;;;;3.13;1.27;;;11.20;99.90;;;;;;4917603;29;20300;-93
2023/05/12 10:39:20;;;;;;;3.60;1.30;;;11.20;99.90;;;;;;4916512;29;20559;-93
2023/05/12 10:42:01;;;;;;;3.70;1.40;;;11.20;99.90;;;;;;4924315;29;20201;-93
2023/05/12 10:44:33;;;;;;;1.80;1.30;;;11.20;99.90;;;;;;4936429;29;20220;-92
2023/05/12 10:47:15;;;;;;;2.20;1.23;;;11.20;99.90;;;;;;4938674;29;20212;-93
2023/05/12 10:49:47;;;;;;;1.90;1.10;;;11.10;99.90;;;;;;4937921;29;20289;-92
2023/05/12 10:52:23;;;;;;;2.10;1.00;;;11.20;99.90;;;;;;4939430;29;20242;-95
2023/05/12 10:55:02;;;;;;;2.60;1.03;;;11.10;99.90;;;;;;4936456;28;20217;-92
2023/05/12 10:57:34;;;;;;;2.30;1.03;;;11.10;99.90;;;;;;4927038;29;20259;-92
2023/05/12 11:00:06;;;;;;;4.10;1.20;;;11.10;99.90;;;;;;4938779;29;20224;-93
2023/05/12 11:02:38;;;;;;;1.93;1.27;;;11.00;99.90;;;;;;4938922;29;20215;-93
2023/05/12 11:05:14;;;;;;;1.60;1.07;;;11.00;99.90;;;;;;4929216;29;20229;-93
2023/05/12 11:07:51;;;;;;;3.53;1.10;;;11.10;99.90;;;;;;4907422;29;20287;-93
2023/05/12 11:10:23;;;;;;;2.00;1.00;;;11.00;99.90;;;;;;4939630;29;20550;-94
2023/05/12 11:12:57;;;;;;;2.47;1.17;;;10.90;99.90;;;;;;4939097;29;20235;-92
2023/05/12 11:15:30;;;;;;;4.13;1.20;;;10.90;99.90;;;;;;4939115;28;20221;-92
2023/05/12 11:18:04;;;;;;;1.47;1.13;;;10.90;99.90;;;;;;4937914;29;20260;-94
2023/05/12 11:20:36;;;;;;;2.73;1.10;;;10.80;99.90;;;;;;4937988;29;20240;-95
2023/05/12 11:23:11;;;;;;;2.87;1.10;;;10.80;99.90;;;;;;4938859;28;20213;-93
2023/05/12 11:25:46;;;;;;;2.67;1.10;;;10.80;99.90;;;;;;4938769;28;20716;-93
2023/05/12 11:28:18;;;;;;;1.30;1.00;;;10.80;99.90;;;;;;4938274;28;20208;-92
2023/05/12 11:30:53;;;;;;;1.80;1.27;;;10.80;99.90;;;;;;4938639;29;20216;-93
2023/05/12 11:33:25;;;;;;;4.43;1.23;;;10.80;99.90;;;;;;4938861;29;20291;-91
2023/05/12 11:35:56;;;;;;;3.00;1.30;;;10.80;99.90;;;;;;4938800;28;20208;-93
2023/05/12 11:38:30;;;;;;;2.57;1.17;;;10.70;99.90;;;;;;4938322;29;20263;-92
2023/05/12 11:41:01;;;;;;;3.37;1.07;;;10.80;99.90;;;;;;4938585;28;20239;-93
2023/05/12 11:43:33;;;;;;;2.13;1.40;;;10.80;99.90;;;;;;4938604;28;20264;-92
2023/05/12 11:46:05;;;;;;;2.03;0.97;;;10.80;99.90;;;;;;4937505;29;20275;-93
2023/05/12 11:48:36;;;;;;;2.27;1.07;;;10.80;99.90;;;;;;4937412;29;20213;-95
2023/05/12 11:51:09;;;;;;;2.17;1.67;;;10.70;99.90;;;;;;4938050;29;20216;-93
2023/05/12 11:53:44;;;;;;;2.50;1.60;;;10.70;99.90;;;;;;4938291;29;20228;-92
2023/05/12 11:56:20;;;;;;;2.00;1.13;;;10.70;99.90;;;;;;4938108;29;20263;-94
2023/05/12 11:58:56;;;;;;;1.63;1.00;;;10.70;99.90;;;;;;4936932;29;20275;-93
2023/05/12 12:01:28;;;;;;;2.17;1.20;;;10.70;99.90;;;;;;4938397;29;20515;-93
2023/05/12 12:03:59;;;;;;;2.70;1.03;;;10.70;99.90;;;;;;4937263;29;20228;-92
2023/05/12 12:06:31;;;;;;;2.53;1.10;;;10.70;99.90;;;;;;4937617;29;20224;-93
2023/05/12 12:09:05;;;;;;;2.03;1.17;;;10.70;99.90;;;;;;4931269;29;20665;-93
2023/05/12 12:11:36;;;;;;;2.60;1.10;;;10.70;99.90;;;;;;4919210;29;20249;-93
2023/05/12 12:14:08;;;;;;;4.93;1.20;;;10.70;99.90;;;;;;4917954;29;20351;-94
2023/05/12 12:16:39;;;;;;;2.80;1.40;;;10.70;99.90;;;;;;4924530;29;20205;-94
2023/05/12 12:19:11;;;;;;;1.50;1.10;;;10.60;99.90;;;;;;4937710;29;20213;-93
2023/05/12 12:21:43;;;;;;;4.27;1.43;;;10.60;99.90;;;;;;4937848;29;20244;-93
2023/05/12 12:24:17;;;;;;;4.67;1.27;;;10.60;99.90;;;;;;4938526;29;20223;-94
2023/05/12 12:26:49;;;;;;;2.30;1.47;;;10.60;99.90;;;;;;4938071;29;20554;-95
2023/05/12 12:29:22;;;;;;;1.90;1.13;;;10.60;99.90;;;;;;4937649;29;20337;-92
2023/05/12 12:31:54;;;;;;;2.87;1.40;;;10.60;99.90;;;;;;4945481;29;20237;-93
2023/05/12 12:34:25;;;;;;;2.67;1.57;;;10.60;99.90;;;;;;4948685;29;20199;-94
2023/05/12 12:36:57;;;;;;;3.03;0.97;;;10.70;99.90;;;;;;4959244;29;20212;-94
2023/05/12 12:39:31;;;;;;;1.10;1.00;;;10.70;99.90;;;;;;4937859;29;20268;-93
2023/05/12 12:42:03;;;;;;;3.23;1.10;;;10.60;99.90;;;;;;4938379;28;20260;-93
2023/05/12 12:44:35;;;;;;;1.67;1.20;;;10.70;99.90;;;;;;4937871;29;20208;-94
2023/05/12 12:47:07;;;;;;;2.90;1.37;;;10.70;99.90;;;;;;4937824;29;20224;-93
2023/05/12 12:49:38;;;;;;;2.93;1.40;;;10.60;99.90;;;;;;4936800;29;20208;-91
2023/05/12 12:52:10;;;;;;;1.63;1.20;;;10.60;99.90;;;;;;4937398;29;20235;-92
2023/05/12 12:54:43;;;;;;;1.47;1.20;;;10.60;99.90;;;;;;4937388;28;20220;-92
2023/05/12 12:57:15;;;;;;;3.27;1.60;;;10.60;99.90;;;;;;4938004;29;20215;-93
2023/05/12 12:59:47;;;;;;;1.93;1.30;;;10.60;99.90;;;;;;4936414;29;20395;-93
2023/05/12 13:02:19;;;;;;;3.13;1.50;;;10.50;99.90;;;;;;4937174;29;20300;-93
2023/05/12 13:04:51;;;;;;;1.47;1.30;;;10.60;99.90;;;;;;4937098;29;20287;-94
2023/05/12 13:07:23;;;;;;;5.20;1.50;;;10.50;99.90;;;;;;4937973;29;20213;-93
2023/05/12 13:09:56;;;;;;;4.33;1.13;;;10.50;99.90;;;;;;4935856;29;20212;-92
2023/05/12 13:12:30;;;;;;;6.10;1.40;;;10.50;99.90;;;;;;4937032;29;20287;-94
2023/05/12 13:15:02;;;;;;;2.87;1.70;;;10.50;99.90;;;;;;4936117;29;20205;-91
2023/05/12 13:17:33;;;;;;;2.60;1.57;;;10.50;99.90;;;;;;4936401;29;20315;-94